Eilat, Israel

7:55 AM IDT on August 26, 2016 (GMT +0300)
Eilat | | Change Station

Elev 39 ft 29.56 °N, 34.96 °E | Updated 5 minutes ago

Clear
Clear
84 °F
Feels Like 87 °F
N
13
Wind Variable Wind from NNE

Today
High -- | Low -- °F
--% Chance of Precip.
Yesterday
High -- | Low -- °F
Precip. -- in
Pressure 29.80 in
Visibility -9999.0 miles
Clouds
Heat Index 87 °F
Dew Point 66 °F
Humidity 55%
Rainfall 0.00 in
Snow Depth Not available.
6:14 AM 7:08 PM
Last Quarter, 38% visible
METAR LLET 260450Z 03011KT CAVOK 29/19 Q1009
Pressure 29.80 in
Visibility -9999.0 miles
Clouds
Heat Index 87 °F
Dew Point 66 °F
Humidity 55%
Rainfall 0.00 in
Snow Depth Not available.
6:14 AM 7:08 PM
Last Quarter, 38% visible
METAR LLET 260450Z 03011KT CAVOK 29/19 Q1009

10-Day Weather Forecast

No radar image for this location.
×

Almanac

Astronomy

Aug. 26, 2016 Rise Set
Actual Time
Civil Twilight
Nautical Twilight
Astronomical Twilight
Moon
Length of Visible Light
Length of Day
Tomorrow will be .
, % of the Moon is Illuminated

Today's Extremes

Country Highs Country Lows

Community

WunderPhotos

Upload Photos

1,935,056 photos uploaded!

WunderBlog® & News

Nearby

Air Quality

  Air Quality AQ Index Pollutant
Not available.

Snow Depth

Station Depth Elevation

Earthquake Activity

City Distance Mag. Time & Date
Minimum magnitude displayed is 2.5.

Coastal Water Temperatures

Place Temperature

Stations

Nearby Weather Stations

Station Location Temp. Windchill Dew Point Humidity Wind Precip. Elev Updated Type